createdAt,value
2019-06-26T00:00:11.574Z,23.43
2019-06-26T00:01:11.800Z,23.55
2019-06-26T00:02:11.802Z,23.43
2019-06-26T00:03:11.780Z,23.5
2019-06-26T00:04:11.796Z,23.54
2019-06-26T00:05:11.786Z,23.58
2019-06-26T00:06:11.316Z,23.55
2019-06-26T00:07:11.824Z,23.61
2019-06-26T00:08:11.773Z,23.55
2019-06-26T00:09:11.817Z,23.61
2019-06-26T00:10:11.805Z,23.56
2019-06-26T00:11:11.810Z,23.55
2019-06-26T00:12:11.587Z,23.61
2019-06-26T00:13:27.464Z,23.62
2019-06-26T00:14:11.847Z,23.65
2019-06-26T00:15:11.578Z,23.61
2019-06-26T00:16:11.583Z,23.66
2019-06-26T00:17:11.598Z,23.68
2019-06-26T00:18:11.604Z,23.63
2019-06-26T00:19:11.855Z,23.69
2019-06-26T00:20:11.844Z,23.62
2019-06-26T00:21:11.832Z,23.65
2019-06-26T00:22:11.827Z,23.66
2019-06-26T00:23:11.849Z,23.65
2019-06-26T00:24:11.844Z,23.69
2019-06-26T00:25:11.606Z,23.71
2019-06-26T00:26:11.695Z,23.74
2019-06-26T00:27:11.610Z,23.62
2019-06-26T00:28:11.859Z,23.69
2019-06-26T00:29:11.611Z,23.66
2019-06-26T00:30:11.880Z,23.71
2019-06-26T00:31:11.915Z,23.71
2019-06-26T00:32:11.677Z,23.65
2019-06-26T00:33:11.381Z,23.58
2019-06-26T00:34:11.964Z,23.76
2019-06-26T00:35:11.637Z,23.66
2019-06-26T00:36:11.878Z,23.62
2019-06-26T00:37:11.893Z,23.68
2019-06-26T00:38:11.871Z,23.66
2019-06-26T00:39:11.643Z,23.69
2019-06-26T00:40:11.653Z,23.69
2019-06-26T00:41:11.661Z,23.63
2019-06-26T00:42:11.905Z,23.71
2019-06-26T00:43:11.660Z,23.62
2019-06-26T00:44:11.654Z,23.62
2019-06-26T00:45:11.429Z,23.76
2019-06-26T00:46:11.678Z,23.77
2019-06-26T00:47:11.705Z,23.71
2019-06-26T00:48:11.703Z,23.76
2019-06-26T00:49:11.741Z,23.66
2019-06-26T00:50:11.429Z,23.62
2019-06-26T00:51:11.918Z,23.62
2019-06-26T00:52:11.681Z,23.62
2019-06-26T00:53:11.923Z,23.61
2019-06-26T00:54:11.694Z,23.62
2019-06-26T00:55:11.931Z,23.55
2019-06-26T00:56:11.941Z,23.62
2019-06-26T00:57:11.709Z,23.63
2019-06-26T00:58:11.704Z,23.66
2019-06-26T00:59:11.703Z,23.63
2019-06-26T01:00:11.503Z,23.63
2019-06-26T01:01:11.710Z,23.63
2019-06-26T01:02:11.708Z,23.71
2019-06-26T01:03:11.722Z,23.77
2019-06-26T01:04:11.958Z,23.77
2019-06-26T01:05:11.710Z,23.71
2019-06-26T01:06:11.973Z,23.78
2019-06-26T01:07:11.970Z,23.77
2019-06-26T01:08:11.487Z,23.8
2019-06-26T01:09:11.979Z,23.8
2019-06-26T01:10:11.724Z,23.93
2019-06-26T01:11:11.719Z,23.77
2019-06-26T01:12:11.729Z,23.95
2019-06-26T01:13:11.735Z,23.91
2019-06-26T01:14:12.054Z,23.91
2019-06-26T01:15:11.736Z,23.91
2019-06-26T01:16:11.743Z,23.91
2019-06-26T01:17:11.985Z,23.87
2019-06-26T01:18:11.741Z,23.95
2019-06-26T01:19:11.763Z,23.92
2019-06-26T01:20:11.772Z,23.88
2019-06-26T01:21:11.755Z,23.83
2019-06-26T01:22:11.777Z,23.8
2019-06-26T01:23:11.561Z,23.73
2019-06-26T01:24:11.764Z,23.69
2019-06-26T01:25:12.045Z,23.68
2019-06-26T01:26:12.006Z,23.68
2019-06-26T01:27:12.061Z,23.65
2019-06-26T01:28:11.770Z,23.63
2019-06-26T01:29:11.829Z,23.65
2019-06-26T01:30:12.071Z,23.65
2019-06-26T01:31:11.548Z,23.62
2019-06-26T01:32:11.795Z,23.65
2019-06-26T01:33:11.798Z,23.65
2019-06-26T01:34:11.557Z,23.71
2019-06-26T01:35:11.825Z,23.73
2019-06-26T01:36:11.805Z,23.76
2019-06-26T01:37:11.799Z,23.76
2019-06-26T01:38:11.812Z,23.73
2019-06-26T01:39:11.812Z,23.66
2019-06-26T01:40:11.861Z,23.63
2019-06-26T01:41:11.581Z,23.73
2019-06-26T01:42:12.071Z,23.68
2019-06-26T01:43:11.810Z,23.63
2019-06-26T01:44:19.461Z,23.61
2019-06-26T01:45:12.079Z,23.63
2019-06-26T01:46:12.076Z,23.62
2019-06-26T01:47:12.087Z,23.61
2019-06-26T01:48:11.624Z,23.65
2019-06-26T01:49:12.079Z,23.66
2019-06-26T01:50:11.845Z,23.61
2019-06-26T01:51:12.088Z,23.59
2019-06-26T01:52:11.843Z,23.65
2019-06-26T01:53:11.845Z,23.63
2019-06-26T01:54:11.849Z,23.68
2019-06-26T01:55:11.620Z,23.69
2019-06-26T01:56:11.852Z,23.69
2019-06-26T01:57:11.850Z,23.59
2019-06-26T01:58:12.104Z,23.68
2019-06-26T01:59:12.111Z,23.68
2019-06-26T02:00:11.871Z,23.62
2019-06-26T02:01:12.114Z,23.74
2019-06-26T02:02:12.110Z,23.71
2019-06-26T02:03:12.135Z,23.73
2019-06-26T02:04:15.466Z,23.65
2019-06-26T02:05:12.133Z,23.76
2019-06-26T02:06:12.169Z,23.73
2019-06-26T02:07:11.633Z,23.71
2019-06-26T02:08:11.880Z,23.65
2019-06-26T02:09:12.134Z,23.69
2019-06-26T02:10:12.153Z,23.78
2019-06-26T02:11:11.882Z,23.66
2019-06-26T02:12:11.890Z,23.74
2019-06-26T02:13:11.637Z,23.66
2019-06-26T02:14:11.657Z,23.74
2019-06-26T02:15:12.182Z,23.74
2019-06-26T02:16:12.147Z,23.74
2019-06-26T02:17:11.897Z,23.68
2019-06-26T02:18:12.145Z,23.78
2019-06-26T02:19:12.156Z,23.76
2019-06-26T02:20:12.211Z,23.66
2019-06-26T02:21:11.920Z,23.73
2019-06-26T02:22:12.192Z,23.76
2019-06-26T02:23:12.172Z,23.77
2019-06-26T02:24:11.992Z,23.78
2019-06-26T02:25:12.159Z,23.68
2019-06-26T02:26:12.182Z,23.71
2019-06-26T02:27:11.673Z,23.61
2019-06-26T02:28:12.164Z,23.63
2019-06-26T02:29:12.208Z,23.62
2019-06-26T02:30:11.988Z,23.63
2019-06-26T02:31:11.994Z,23.54
2019-06-26T02:32:11.964Z,23.58
2019-06-26T02:33:12.177Z,23.58
2019-06-26T02:34:12.178Z,23.54
2019-06-26T02:35:15.078Z,23.44
2019-06-26T02:36:12.241Z,23.44
2019-06-26T02:37:12.189Z,23.41
2019-06-26T02:38:12.219Z,23.54
2019-06-26T02:39:11.760Z,23.51
2019-06-26T02:40:12.228Z,23.44
2019-06-26T02:41:12.195Z,23.44
2019-06-26T02:42:11.731Z,23.44
2019-06-26T02:43:12.352Z,23.41
2019-06-26T02:44:11.983Z,23.43
2019-06-26T02:45:12.230Z,23.39
2019-06-26T02:46:12.218Z,23.37
2019-06-26T02:47:24.832Z,23.28
2019-06-26T02:48:11.980Z,23.28
2019-06-26T02:49:12.280Z,23.27
2019-06-26T02:50:11.990Z,23.28
2019-06-26T02:51:12.209Z,23.27
2019-06-26T02:52:11.723Z,23.24
2019-06-26T02:53:12.224Z,23.36
2019-06-26T02:54:12.236Z,23.31
2019-06-26T02:55:12.147Z,23.36
2019-06-26T02:56:12.256Z,23.34
2019-06-26T02:57:12.097Z,23.39
2019-06-26T02:58:11.981Z,23.39
2019-06-26T02:59:12.247Z,23.4
2019-06-26T03:00:12.004Z,23.41
2019-06-26T03:01:11.773Z,23.4
2019-06-26T03:02:12.253Z,23.39
2019-06-26T03:03:12.019Z,23.36
2019-06-26T03:04:12.015Z,23.37
2019-06-26T03:05:11.759Z,23.34
2019-06-26T03:06:11.765Z,23.36
2019-06-26T03:07:12.275Z,23.31
2019-06-26T03:08:12.275Z,23.28
2019-06-26T03:09:11.774Z,23.36
2019-06-26T03:10:12.025Z,23.25
2019-06-26T03:11:12.024Z,23.25
2019-06-26T03:12:11.780Z,23.25
2019-06-26T03:13:12.265Z,23.18
2019-06-26T03:14:12.268Z,23.25
2019-06-26T03:15:13.908Z,23.25
2019-06-26T03:16:12.053Z,23.34
2019-06-26T03:17:12.044Z,23.28
2019-06-26T03:18:12.295Z,23.32
2019-06-26T03:19:12.277Z,23.23
2019-06-26T03:20:11.824Z,23.28
2019-06-26T03:21:12.055Z,23.27
2019-06-26T03:22:12.304Z,23.23
2019-06-26T03:23:12.042Z,23.17
2019-06-26T03:24:12.306Z,23.15
2019-06-26T03:25:12.337Z,23.21
2019-06-26T03:26:11.832Z,23.17
2019-06-26T03:27:14.049Z,23.17
2019-06-26T03:28:12.364Z,23.15
2019-06-26T03:29:12.309Z,23.25
2019-06-26T03:30:12.322Z,23.21
2019-06-26T03:31:12.328Z,23.24
2019-06-26T03:32:12.326Z,23.36
2019-06-26T03:33:12.401Z,23.36
2019-06-26T03:34:12.401Z,23.37
2019-06-26T03:35:12.322Z,23.39
2019-06-26T03:36:12.080Z,23.4
2019-06-26T03:37:12.080Z,23.41
2019-06-26T03:38:12.088Z,23.4
2019-06-26T03:39:12.356Z,23.24
2019-06-26T03:40:12.085Z,23.21
2019-06-26T03:41:12.074Z,23.27
2019-06-26T03:42:11.836Z,23.21
2019-06-26T03:43:12.512Z,23.24
2019-06-26T03:44:12.278Z,23.17
2019-06-26T03:45:28.460Z,23.15
2019-06-26T03:46:12.429Z,23.1
2019-06-26T03:47:12.379Z,23.2
2019-06-26T03:48:12.385Z,23.09
2019-06-26T03:49:12.348Z,23.12
2019-06-26T03:50:12.097Z,22.96
2019-06-26T03:51:16.197Z,23.06
2019-06-26T03:52:12.102Z,22.99
2019-06-26T03:53:12.345Z,22.99
2019-06-26T03:54:12.137Z,23.02
2019-06-26T03:55:12.183Z,23.02
2019-06-26T03:56:12.406Z,23.06
2019-06-26T03:57:12.134Z,23.13
2019-06-26T03:58:12.152Z,23.12
2019-06-26T03:59:12.140Z,23.12
2019-06-26T04:00:12.139Z,23.17
2019-06-26T04:01:12.494Z,23.28
2019-06-26T04:02:12.131Z,23.27
2019-06-26T04:03:12.370Z,23.34
2019-06-26T04:04:12.157Z,23.48
2019-06-26T04:05:12.458Z,23.39
2019-06-26T04:06:11.898Z,23.47
2019-06-26T04:07:12.385Z,23.51
2019-06-26T04:08:12.208Z,23.59
2019-06-26T04:09:12.132Z,23.59
2019-06-26T04:10:12.390Z,23.68
2019-06-26T04:11:12.401Z,23.77
2019-06-26T04:12:12.441Z,23.86
2019-06-26T04:13:12.154Z,23.91
2019-06-26T04:14:12.394Z,24.01
2019-06-26T04:15:11.919Z,24.05
2019-06-26T04:16:12.153Z,24.24
2019-06-26T04:17:12.391Z,24.29
2019-06-26T04:18:12.463Z,24.3
2019-06-26T04:19:12.158Z,24.45
2019-06-26T04:20:12.456Z,24.53
2019-06-26T04:21:12.428Z,24.65
2019-06-26T04:22:11.939Z,24.65
2019-06-26T04:23:12.420Z,24.81
2019-06-26T04:24:12.193Z,24.88
2019-06-26T04:25:12.185Z,25.04
2019-06-26T04:26:12.195Z,25.04
2019-06-26T04:27:11.946Z,25.1
2019-06-26T04:28:12.445Z,25.18
2019-06-26T04:29:12.448Z,25.18
2019-06-26T04:30:12.477Z,25.38
2019-06-26T04:31:11.948Z,25.33
2019-06-26T04:32:12.216Z,25.46
2019-06-26T04:33:12.203Z,25.5
2019-06-26T04:34:12.003Z,25.63
2019-06-26T04:35:12.248Z,25.68
2019-06-26T04:36:12.230Z,25.83
2019-06-26T04:37:12.260Z,25.99
2019-06-26T04:38:12.234Z,26.09
2019-06-26T04:39:12.245Z,26.13
2019-06-26T04:40:11.988Z,26.22
2019-06-26T04:41:12.233Z,26.16
2019-06-26T04:42:11.990Z,26.18
2019-06-26T04:43:12.493Z,26.15
2019-06-26T04:44:12.295Z,26.25
2019-06-26T04:45:12.268Z,26.36
2019-06-26T04:46:12.272Z,26.47
2019-06-26T04:47:12.303Z,26.63
2019-06-26T04:48:12.526Z,26.74
2019-06-26T04:49:12.042Z,26.68
2019-06-26T04:50:12.517Z,26.73
2019-06-26T04:51:12.289Z,26.77
2019-06-26T04:52:12.534Z,26.83
2019-06-26T04:53:12.574Z,26.88
2019-06-26T04:54:12.301Z,26.93
2019-06-26T04:55:12.573Z,27.02
2019-06-26T04:56:12.568Z,26.97
2019-06-26T04:57:12.080Z,26.96
2019-06-26T04:58:12.564Z,26.95
2019-06-26T04:59:12.337Z,26.84
2019-06-26T05:00:12.586Z,26.88
2019-06-26T05:01:12.417Z,26.89
2019-06-26T05:02:12.391Z,27.08
2019-06-26T05:03:12.351Z,27.18
2019-06-26T05:04:12.343Z,27.22
2019-06-26T05:05:12.114Z,27.25
2019-06-26T05:06:12.604Z,27.37
2019-06-26T05:07:12.616Z,27.49
2019-06-26T05:08:12.470Z,27.52
2019-06-26T05:09:12.374Z,27.55
2019-06-26T05:10:12.694Z,27.74
2019-06-26T05:11:15.135Z,27.86
2019-06-26T05:12:12.634Z,27.83
2019-06-26T05:13:12.640Z,27.87
2019-06-26T05:14:12.423Z,27.93
2019-06-26T05:15:12.426Z,28.05
2019-06-26T05:16:22.967Z,28.29
2019-06-26T05:17:12.411Z,28.38
2019-06-26T05:18:12.681Z,28.48
2019-06-26T05:19:12.716Z,28.62
2019-06-26T05:20:12.685Z,28.63
2019-06-26T05:21:12.217Z,28.51
2019-06-26T05:22:12.694Z,28.57
2019-06-26T05:23:12.265Z,28.44
2019-06-26T05:24:12.478Z,28.25
2019-06-26T05:25:12.727Z,28.32
2019-06-26T05:26:12.726Z,28.23
2019-06-26T05:27:12.726Z,28.44
2019-06-26T05:28:13.150Z,28.45
2019-06-26T05:29:12.740Z,28.56
2019-06-26T05:30:12.526Z,28.72
2019-06-26T05:31:12.511Z,28.88
2019-06-26T05:32:12.533Z,28.96
2019-06-26T05:33:12.290Z,29.07
2019-06-26T05:34:15.549Z,29.26
2019-06-26T05:35:12.778Z,29.41
2019-06-26T05:36:12.779Z,29.66
2019-06-26T05:37:12.958Z,29.82
2019-06-26T05:38:12.562Z,29.91
2019-06-26T05:39:12.910Z,30.12
2019-06-26T05:40:12.640Z,30.3
2019-06-26T05:41:12.580Z,30.47
2019-06-26T05:42:12.615Z,30.55
2019-06-26T05:43:12.865Z,30.66
2019-06-26T05:44:12.607Z,30.83
2019-06-26T05:45:12.843Z,30.92
2019-06-26T05:46:12.374Z,31.09
2019-06-26T05:47:12.615Z,31.12
2019-06-26T05:48:12.620Z,31.36
2019-06-26T05:49:12.867Z,31.46
2019-06-26T05:50:13.292Z,31.56
2019-06-26T05:51:12.638Z,31.69
2019-06-26T05:52:16.396Z,31.81
2019-06-26T05:53:12.921Z,31.76
2019-06-26T05:54:12.702Z,31.85
2019-06-26T05:55:12.929Z,31.85
2019-06-26T05:56:12.682Z,32.04
2019-06-26T05:57:12.688Z,32.11
2019-06-26T05:58:12.971Z,32.18
2019-06-26T05:59:12.710Z,32.3
2019-06-26T06:00:13.080Z,32.45
2019-06-26T06:01:12.965Z,32.46
2019-06-26T06:02:12.985Z,32.51
2019-06-26T06:03:12.989Z,32.53
2019-06-26T06:04:12.874Z,32.49
2019-06-26T06:05:12.990Z,32.64
2019-06-26T06:06:12.522Z,32.75
2019-06-26T06:07:13.009Z,32.83
2019-06-26T06:08:12.779Z,32.95
2019-06-26T06:09:12.794Z,32.97
2019-06-26T06:10:12.584Z,32.97
2019-06-26T06:11:13.083Z,33.11
2019-06-26T06:12:13.058Z,33.12
2019-06-26T06:13:12.582Z,33.37
2019-06-26T06:14:13.137Z,33.32
2019-06-26T06:15:12.905Z,33.47
2019-06-26T06:16:12.846Z,33.5
2019-06-26T06:17:13.125Z,33.53
2019-06-26T06:18:13.195Z,33.67
2019-06-26T06:19:12.883Z,33.73
2019-06-26T06:20:12.894Z,33.83
2019-06-26T06:21:12.893Z,33.94
2019-06-26T06:22:12.896Z,33.86
2019-06-26T06:23:12.925Z,33.79
2019-06-26T06:24:12.915Z,34.01
2019-06-26T06:25:13.186Z,33.96
2019-06-26T06:26:13.217Z,33.99
2019-06-26T06:27:12.709Z,34.14
2019-06-26T06:28:13.208Z,34.08
2019-06-26T06:29:13.230Z,34.23
2019-06-26T06:30:13.225Z,34.25
2019-06-26T06:31:12.727Z,34.35
2019-06-26T06:32:13.381Z,34.35
2019-06-26T06:33:13.044Z,34.33
2019-06-26T06:34:13.257Z,34.27
2019-06-26T06:35:13.286Z,34.32
2019-06-26T06:36:14.420Z,34.29
2019-06-26T06:37:13.073Z,34.5
2019-06-26T06:38:13.304Z,34.42
2019-06-26T06:39:13.056Z,34.5
2019-06-26T06:40:13.094Z,34.61
2019-06-26T06:41:13.340Z,34.81
2019-06-26T06:42:13.332Z,34.86
2019-06-26T06:43:13.364Z,34.86
2019-06-26T06:44:13.343Z,34.97
2019-06-26T06:45:13.364Z,35.07
2019-06-26T06:46:13.140Z,35.08
2019-06-26T06:47:13.915Z,35.29
2019-06-26T06:48:13.420Z,35.49
2019-06-26T06:49:13.434Z,35.51
2019-06-26T06:50:13.413Z,35.58
2019-06-26T06:51:13.422Z,35.68
2019-06-26T06:52:16.470Z,35.49
2019-06-26T06:53:13.455Z,35.66
2019-06-26T06:54:13.505Z,35.7
2019-06-26T06:55:12.998Z,35.48
2019-06-26T06:56:13.255Z,35.51
2019-06-26T06:57:13.475Z,35.46
2019-06-26T06:58:13.264Z,35.53
2019-06-26T06:59:13.516Z,35.64
2019-06-26T07:00:13.286Z,35.76
2019-06-26T07:01:13.279Z,35.83
2019-06-26T07:02:13.538Z,35.85
2019-06-26T07:03:13.301Z,35.82
2019-06-26T07:04:13.543Z,35.73
2019-06-26T07:05:13.567Z,35.8
2019-06-26T07:06:13.398Z,35.67
2019-06-26T07:07:13.581Z,35.6
2019-06-26T07:08:13.372Z,35.71
2019-06-26T07:09:13.361Z,35.58
2019-06-26T07:10:13.382Z,35.6
2019-06-26T07:11:13.634Z,35.26
2019-06-26T07:12:13.638Z,35.1
2019-06-26T07:13:13.651Z,35
2019-06-26T07:14:13.667Z,34.85
2019-06-26T07:15:13.663Z,34.64
2019-06-26T07:16:13.676Z,34.64
2019-06-26T07:17:25.159Z,34.66
2019-06-26T07:18:13.478Z,34.75
2019-06-26T07:19:13.703Z,34.95
2019-06-26T07:20:13.807Z,34.99
2019-06-26T07:21:13.492Z,35.17
2019-06-26T07:22:13.502Z,35.31
2019-06-26T07:23:13.748Z,35.49
2019-06-26T07:24:13.539Z,35.63
2019-06-26T07:25:13.757Z,36.02
2019-06-26T07:26:15.837Z,36.3
2019-06-26T07:27:13.784Z,36.59
2019-06-26T07:28:14.053Z,36.92
2019-06-26T07:29:13.561Z,37.2
2019-06-26T07:30:13.564Z,37.48
2019-06-26T07:31:13.826Z,37.7
2019-06-26T07:32:13.762Z,37.93
2019-06-26T07:33:13.840Z,37.89
2019-06-26T07:34:13.611Z,37.78
2019-06-26T07:35:13.620Z,37.74
2019-06-26T07:36:13.888Z,37.72
2019-06-26T07:37:13.885Z,37.72
2019-06-26T07:38:13.934Z,37.6
2019-06-26T07:39:13.673Z,37.77
2019-06-26T07:40:13.922Z,37.71
2019-06-26T07:41:13.922Z,37.78
2019-06-26T07:42:13.951Z,37.7
2019-06-26T07:43:18.774Z,37.68
2019-06-26T07:44:13.714Z,37.87
2019-06-26T07:45:13.490Z,38.11
2019-06-26T07:46:13.736Z,38.28
2019-06-26T07:47:44.874Z,38.79
2019-06-26T07:48:14.568Z,38.83
2019-06-26T07:49:13.773Z,38.89
2019-06-26T07:50:13.558Z,39.06
2019-06-26T07:51:14.046Z,39.18
2019-06-26T07:52:13.811Z,39.17
2019-06-26T07:53:13.830Z,39.17
2019-06-26T07:54:13.837Z,39.29
2019-06-26T07:55:16.836Z,39.62
2019-06-26T07:56:14.109Z,39.53
2019-06-26T07:57:13.876Z,39.31
2019-06-26T07:58:13.890Z,39.06
2019-06-26T07:59:13.906Z,39.02
2019-06-26T08:00:13.928Z,38.76
2019-06-26T08:01:14.170Z,38.54
2019-06-26T08:02:14.179Z,38.28
2019-06-26T08:03:14.213Z,38.14
2019-06-26T08:04:14.246Z,37.96
2019-06-26T08:05:14.208Z,37.75
2019-06-26T08:06:14.280Z,37.86
2019-06-26T08:07:13.975Z,38.06
2019-06-26T08:08:17.043Z,38.11
2019-06-26T08:09:14.012Z,38.05
2019-06-26T08:10:14.067Z,37.86
2019-06-26T08:11:14.045Z,37.59
2019-06-26T08:12:14.292Z,37.58
2019-06-26T08:13:14.296Z,37.63
2019-06-26T08:14:14.062Z,37.7
2019-06-26T08:15:14.084Z,38.12
2019-06-26T08:16:14.434Z,38.34
2019-06-26T08:17:14.107Z,38.48
2019-06-26T08:18:14.357Z,38.76
2019-06-26T08:19:14.118Z,38.99
2019-06-26T08:20:14.377Z,38.91
2019-06-26T08:21:17.593Z,38.68
2019-06-26T08:22:14.161Z,38.6
2019-06-26T08:23:14.396Z,38.87
2019-06-26T08:24:14.176Z,38.99
2019-06-26T08:25:14.197Z,38.91
2019-06-26T08:26:14.460Z,38.62
2019-06-26T08:27:17.672Z,38.5
2019-06-26T08:28:13.982Z,38.49
2019-06-26T08:29:14.507Z,38.6
2019-06-26T08:30:14.501Z,38.67
2019-06-26T08:31:14.362Z,38.65
2019-06-26T08:32:14.518Z,38.64
2019-06-26T08:33:14.296Z,38.69
2019-06-26T08:34:14.328Z,38.68
2019-06-26T08:35:14.729Z,38.64
2019-06-26T08:36:14.067Z,38.54
2019-06-26T08:37:14.371Z,38.27
2019-06-26T08:38:19.779Z,38.45
2019-06-26T08:39:14.608Z,38.39
2019-06-26T08:40:14.389Z,38.55
2019-06-26T08:41:14.367Z,38.52
2019-06-26T08:42:14.402Z,38.62
2019-06-26T08:43:14.755Z,38.8
2019-06-26T08:44:14.966Z,39.14
2019-06-26T08:45:14.429Z,39.04
2019-06-26T08:46:14.433Z,38.87
2019-06-26T08:47:14.193Z,38.89
2019-06-26T08:48:41.503Z,39.09
2019-06-26T08:49:29.654Z,39.26
2019-06-26T08:50:14.483Z,39.34
2019-06-26T08:51:14.486Z,39.19
2019-06-26T08:52:14.524Z,39.02
2019-06-26T08:53:15.107Z,39.04
2019-06-26T08:54:14.784Z,38.76
2019-06-26T08:55:14.541Z,38.52
2019-06-26T08:56:14.848Z,38.28
2019-06-26T08:57:14.823Z,38.09
2019-06-26T08:58:14.585Z,38.19
2019-06-26T08:59:14.618Z,38.15
2019-06-26T09:00:14.665Z,37.9
2019-06-26T09:01:14.617Z,37.42
2019-06-26T09:02:14.652Z,36.93
2019-06-26T09:03:14.627Z,36.49
2019-06-26T09:04:14.672Z,36.07
2019-06-26T09:05:14.637Z,35.63
2019-06-26T09:06:14.665Z,35.42
2019-06-26T09:07:14.733Z,35.26
2019-06-26T09:08:15.326Z,35.22
2019-06-26T09:09:14.439Z,35
2019-06-26T09:10:14.456Z,34.83
2019-06-26T09:11:14.749Z,34.73
2019-06-26T09:12:15.001Z,34.52
2019-06-26T09:13:14.737Z,34.5
2019-06-26T09:14:14.503Z,34.35
2019-06-26T09:15:15.024Z,34.18
2019-06-26T09:16:14.767Z,34.21
2019-06-26T09:17:15.050Z,34.2
2019-06-26T09:18:15.037Z,34.23
2019-06-26T09:19:14.794Z,34.2
2019-06-26T09:20:14.837Z,34.17
2019-06-26T09:21:15.217Z,34.2
2019-06-26T09:22:14.839Z,34.16
2019-06-26T09:23:14.825Z,34.16
2019-06-26T09:24:14.839Z,34.11
2019-06-26T09:25:26.168Z,34.17
2019-06-26T09:26:15.092Z,34.24
2019-06-26T09:27:17.503Z,34.36
2019-06-26T09:28:15.121Z,34.42
2019-06-26T09:29:15.157Z,34.5
2019-06-26T09:30:15.300Z,34.52
2019-06-26T09:31:14.904Z,34.67
2019-06-26T09:32:14.919Z,34.78
2019-06-26T09:33:15.150Z,34.78
2019-06-26T09:34:14.936Z,34.83
2019-06-26T09:35:14.938Z,34.5
2019-06-26T09:36:14.981Z,34.25
2019-06-26T09:37:15.187Z,34.24
2019-06-26T09:38:15.212Z,34.2
2019-06-26T09:39:14.985Z,34.24
2019-06-26T09:40:15.241Z,34.32
2019-06-26T09:41:15.213Z,34.42
2019-06-26T09:42:18.464Z,34.45
2019-06-26T09:43:14.753Z,34.36
2019-06-26T09:44:15.023Z,34.24
2019-06-26T09:45:15.291Z,34.08
2019-06-26T09:46:15.282Z,33.95
2019-06-26T09:47:17.830Z,33.92
2019-06-26T09:48:15.053Z,33.86
2019-06-26T09:49:14.794Z,33.84
2019-06-26T09:50:15.036Z,33.8
2019-06-26T09:51:15.106Z,33.84
2019-06-26T09:52:15.077Z,33.8
2019-06-26T09:53:15.319Z,33.81
2019-06-26T09:54:15.340Z,33.89
2019-06-26T09:55:15.105Z,34.06
2019-06-26T09:56:15.337Z,34.1
2019-06-26T09:57:15.087Z,34.17
2019-06-26T09:58:17.976Z,34.33
2019-06-26T09:59:14.859Z,34.4
2019-06-26T10:00:15.114Z,34.38
2019-06-26T10:01:15.376Z,34.42
2019-06-26T10:02:15.388Z,34.42
2019-06-26T10:03:15.407Z,34.32
2019-06-26T10:04:15.140Z,34.27
2019-06-26T10:05:15.180Z,34.48
2019-06-26T10:06:15.438Z,34.4
2019-06-26T10:07:15.171Z,34.35
2019-06-26T10:08:15.159Z,34.4
2019-06-26T10:09:15.257Z,34.54
2019-06-26T10:10:14.946Z,34.52
2019-06-26T10:11:15.258Z,34.54
2019-06-26T10:12:15.206Z,34.66
2019-06-26T10:13:15.470Z,34.45
2019-06-26T10:14:15.516Z,34.39
2019-06-26T10:15:14.981Z,34.48
2019-06-26T10:16:15.237Z,34.33
2019-06-26T10:17:15.240Z,34.3
2019-06-26T10:18:15.511Z,34.3
2019-06-26T10:19:15.679Z,34.42
2019-06-26T10:20:15.693Z,34.42
2019-06-26T10:21:15.265Z,34.43
2019-06-26T10:22:15.276Z,34.35
2019-06-26T10:23:15.547Z,34.5
2019-06-26T10:24:15.585Z,34.57
2019-06-26T10:25:16.458Z,34.58
2019-06-26T10:26:15.319Z,34.61
2019-06-26T10:27:15.356Z,34.67
2019-06-26T10:28:15.619Z,34.8
2019-06-26T10:29:15.606Z,34.77
2019-06-26T10:30:15.333Z,34.83
2019-06-26T10:31:18.329Z,34.83
2019-06-26T10:32:15.726Z,34.8
2019-06-26T10:33:15.174Z,34.66
2019-06-26T10:34:15.622Z,34.55
2019-06-26T10:35:15.714Z,34.38
2019-06-26T10:36:15.396Z,34.47
2019-06-26T10:37:15.390Z,34.43
2019-06-26T10:38:15.864Z,34.33
2019-06-26T10:39:15.652Z,34.39
2019-06-26T10:40:18.741Z,34.38
2019-06-26T10:41:15.431Z,34.5
2019-06-26T10:42:15.485Z,34.47
2019-06-26T10:43:15.503Z,34.48
2019-06-26T10:44:15.459Z,34.67
2019-06-26T10:45:15.680Z,34.93
2019-06-26T10:46:15.738Z,34.96
2019-06-26T10:47:15.510Z,35.08
2019-06-26T10:48:15.515Z,35.18
2019-06-26T10:49:31.218Z,35.19
2019-06-26T10:50:15.762Z,35.29
2019-06-26T10:51:15.575Z,35.44
2019-06-26T10:52:15.762Z,35.36
2019-06-26T10:53:15.752Z,35.31
2019-06-26T10:54:15.669Z,35.17
2019-06-26T10:55:15.284Z,34.99
2019-06-26T10:56:15.528Z,35.05
2019-06-26T10:57:15.562Z,34.96
2019-06-26T10:58:15.289Z,35.04
2019-06-26T10:59:15.554Z,34.97
2019-06-26T11:00:15.578Z,34.85
2019-06-26T11:01:15.831Z,34.71
2019-06-26T11:02:19.195Z,34.45
2019-06-26T11:03:15.597Z,34.4
2019-06-26T11:04:15.363Z,34.45
2019-06-26T11:05:15.833Z,34.29
2019-06-26T11:06:15.659Z,34.36
2019-06-26T11:07:15.655Z,34.42
2019-06-26T11:08:15.635Z,34.42
2019-06-26T11:09:15.666Z,34.5
2019-06-26T11:10:15.662Z,34.5
2019-06-26T11:11:15.945Z,34.42
2019-06-26T11:12:15.665Z,34.38
2019-06-26T11:13:15.761Z,34.33
2019-06-26T11:14:15.666Z,34.29
2019-06-26T11:15:15.947Z,34.29
2019-06-26T11:16:16.102Z,34.39
2019-06-26T11:17:15.689Z,34.39
2019-06-26T11:18:15.745Z,34.47
2019-06-26T11:19:15.948Z,34.47
2019-06-26T11:20:15.964Z,34.47
2019-06-26T11:21:15.944Z,34.48
2019-06-26T11:22:15.727Z,34.5
2019-06-26T11:23:15.502Z,34.61
2019-06-26T11:24:16.015Z,34.57
2019-06-26T11:25:15.781Z,34.5
2019-06-26T11:26:16.015Z,34.45
2019-06-26T11:27:15.999Z,34.54
2019-06-26T11:28:16.008Z,34.47
2019-06-26T11:29:15.843Z,34.6
2019-06-26T11:30:15.767Z,34.7
2019-06-26T11:31:16.066Z,34.85
2019-06-26T11:32:16.024Z,34.93
2019-06-26T11:33:16.048Z,34.86
2019-06-26T11:34:16.098Z,34.89
2019-06-26T11:35:16.107Z,34.89
2019-06-26T11:36:16.089Z,34.9
2019-06-26T11:37:15.830Z,34.96
2019-06-26T11:38:15.608Z,35.08
2019-06-26T11:39:15.868Z,35.3
2019-06-26T11:40:15.632Z,35.39
2019-06-26T11:41:15.843Z,35.53
2019-06-26T11:42:16.101Z,35.52
2019-06-26T11:43:15.858Z,35.48
2019-06-26T11:44:15.860Z,35.53
2019-06-26T11:45:16.223Z,35.42
2019-06-26T11:46:15.880Z,35.3
2019-06-26T11:47:15.888Z,35.29
2019-06-26T11:48:16.149Z,35.36
2019-06-26T11:49:15.721Z,35.44
2019-06-26T11:50:16.172Z,35.34
2019-06-26T11:51:15.919Z,35.36
2019-06-26T11:52:15.928Z,35.23
2019-06-26T11:53:15.938Z,35.31
2019-06-26T11:54:16.203Z,35.31
2019-06-26T11:55:16.198Z,35.33
2019-06-26T11:56:16.225Z,35.51
2019-06-26T11:57:16.234Z,35.51
2019-06-26T11:58:16.080Z,35.51
2019-06-26T11:59:15.778Z,35.44
2019-06-26T12:00:16.603Z,35.46
2019-06-26T12:01:16.019Z,35.48
2019-06-26T12:02:16.242Z,35.53
2019-06-26T12:03:17.891Z,35.55
2019-06-26T12:04:16.032Z,35.58
2019-06-26T12:05:16.375Z,35.53
2019-06-26T12:06:23.753Z,35.53
2019-06-26T12:07:16.358Z,35.63
2019-06-26T12:08:18.468Z,35.58
2019-06-26T12:09:16.341Z,35.55
2019-06-26T12:10:16.425Z,35.51
2019-06-26T12:11:16.055Z,35.42
2019-06-26T12:12:16.310Z,35.49
2019-06-26T12:13:16.091Z,35.48
2019-06-26T12:14:16.326Z,35.36
2019-06-26T12:15:16.414Z,35.36
2019-06-26T12:16:16.119Z,35.45
2019-06-26T12:17:16.172Z,35.34
2019-06-26T12:18:16.385Z,35.29
2019-06-26T12:19:18.984Z,35.29
2019-06-26T12:20:23.569Z,35.33
2019-06-26T12:21:16.394Z,35.29
2019-06-26T12:22:16.386Z,35.11
2019-06-26T12:23:16.391Z,35.14
2019-06-26T12:24:16.475Z,35.05
2019-06-26T12:25:16.281Z,35.23
2019-06-26T12:26:16.450Z,35.1
2019-06-26T12:27:16.431Z,35.08
2019-06-26T12:28:16.186Z,35
2019-06-26T12:29:16.483Z,34.99
2019-06-26T12:30:16.220Z,34.89
2019-06-26T12:31:15.971Z,34.8
2019-06-26T12:32:16.224Z,34.93
2019-06-26T12:33:16.221Z,34.96
2019-06-26T12:34:16.509Z,35.05
2019-06-26T12:35:16.304Z,34.99
2019-06-26T12:36:16.089Z,35
2019-06-26T12:37:16.326Z,34.85
2019-06-26T12:38:16.520Z,34.83
2019-06-26T12:39:16.277Z,34.75
2019-06-26T12:40:16.535Z,34.86
2019-06-26T12:41:16.070Z,34.77
2019-06-26T12:42:16.297Z,34.83
2019-06-26T12:43:16.573Z,34.9
2019-06-26T12:44:16.333Z,34.96
2019-06-26T12:45:16.087Z,35.02
2019-06-26T12:46:20.464Z,35.1
2019-06-26T12:47:16.571Z,35.18
2019-06-26T12:48:18.881Z,35.08
2019-06-26T12:49:16.340Z,35.02
2019-06-26T12:50:16.365Z,35.08
2019-06-26T12:51:16.648Z,34.97
2019-06-26T12:52:19.456Z,35
2019-06-26T12:53:16.374Z,34.89
2019-06-26T12:54:16.542Z,34.74
2019-06-26T12:55:16.402Z,34.78